sensor_id;sensor_type;location;lat;lon;timestamp;temperature;humidity
61092;DHT22;46975;51.898;11.444;2022-09-29T00:01:26;8.60;99.90
61092;DHT22;46975;51.898;11.444;2022-09-29T00:03:52;8.60;99.90
61092;DHT22;46975;51.898;11.444;2022-09-29T00:06:18;8.50;99.90
61092;DHT22;46975;51.898;11.444;2022-09-29T00:08:44;8.50;99.90
61092;DHT22;46975;51.898;11.444;2022-09-29T00:11:12;8.50;99.90
61092;DHT22;46975;51.898;11.444;2022-09-29T00:13:38;8.50;99.90
61092;DHT22;46975;51.898;11.444;2022-09-29T00:16:04;8.50;99.90
61092;DHT22;46975;51.898;11.444;2022-09-29T00:18:31;8.50;99.90
61092;DHT22;46975;51.898;11.444;2022-09-29T00:20:59;8.60;99.90
61092;DHT22;46975;51.898;11.444;2022-09-29T00:23:26;8.60;99.90
61092;DHT22;46975;51.898;11.444;2022-09-29T00:26:20;8.60;99.90
61092;DHT22;46975;51.898;11.444;2022-09-29T00:28:51;8.60;99.90
61092;DHT22;46975;51.898;11.444;2022-09-29T00:31:18;8.60;99.90
61092;DHT22;46975;51.898;11.444;2022-09-29T00:33:44;8.70;99.90
61092;DHT22;46975;51.898;11.444;2022-09-29T00:36:15;8.70;99.90
61092;DHT22;46975;51.898;11.444;2022-09-29T00:38:42;8.70;99.90
61092;DHT22;46975;51.898;11.444;2022-09-29T00:41:16;8.70;99.90
61092;DHT22;46975;51.898;11.444;2022-09-29T00:44:05;8.70;99.90
61092;DHT22;46975;51.898;11.444;2022-09-29T00:49:28;8.70;99.90
61092;DHT22;46975;51.898;11.444;2022-09-29T00:52:01;8.70;99.90
61092;DHT22;46975;51.898;11.444;2022-09-29T00:54:30;8.70;99.90
61092;DHT22;46975;51.898;11.444;2022-09-29T00:56:59;8.70;99.90
61092;DHT22;46975;51.898;11.444;2022-09-29T00:59:34;8.70;99.90
61092;DHT22;46975;51.898;11.444;2022-09-29T01:02:02;8.70;99.90
61092;DHT22;46975;51.898;11.444;2022-09-29T01:04:30;8.70;99.90
61092;DHT22;46975;51.898;11.444;2022-09-29T01:06:57;8.80;99.90
61092;DHT22;46975;51.898;11.444;2022-09-29T01:09:29;8.80;99.90
61092;DHT22;46975;51.898;11.444;2022-09-29T01:11:56;8.80;99.90
61092;DHT22;46975;51.898;11.444;2022-09-29T01:14:24;8.80;99.90
61092;DHT22;46975;51.898;11.444;2022-09-29T01:16:50;8.80;99.90
61092;DHT22;46975;51.898;11.444;2022-09-29T01:19:21;8.80;99.90
61092;DHT22;46975;51.898;11.444;2022-09-29T01:46:41;8.70;99.90
61092;DHT22;46975;51.898;11.444;2022-09-29T01:49:08;8.60;99.90
61092;DHT22;46975;51.898;11.444;2022-09-29T01:51:43;8.60;99.90
61092;DHT22;46975;51.898;11.444;2022-09-29T01:54:23;8.50;99.90
61092;DHT22;46975;51.898;11.444;2022-09-29T01:56:55;8.50;99.90
61092;DHT22;46975;51.898;11.444;2022-09-29T02:02:09;8.40;99.90
61092;DHT22;46975;51.898;11.444;2022-09-29T02:04:40;8.40;99.90
61092;DHT22;46975;51.898;11.444;2022-09-29T02:07:15;8.40;99.90
61092;DHT22;46975;51.898;11.444;2022-09-29T02:09:45;8.40;99.90
61092;DHT22;46975;51.898;11.444;2022-09-29T02:12:17;8.30;99.90
61092;DHT22;46975;51.898;11.444;2022-09-29T02:14:47;8.30;99.90
61092;DHT22;46975;51.898;11.444;2022-09-29T02:17:14;8.30;99.90
61092;DHT22;46975;51.898;11.444;2022-09-29T02:19:45;8.30;99.90
61092;DHT22;46975;51.898;11.444;2022-09-29T02:22:12;8.30;99.90
61092;DHT22;46975;51.898;11.444;2022-09-29T02:24:38;8.30;99.90
61092;DHT22;46975;51.898;11.444;2022-09-29T02:27:05;8.30;99.90
61092;DHT22;46975;51.898;11.444;2022-09-29T02:29:35;8.20;99.90
61092;DHT22;46975;51.898;11.444;2022-09-29T02:32:05;8.20;99.90
61092;DHT22;46975;51.898;11.444;2022-09-29T02:34:37;8.10;99.90
61092;DHT22;46975;51.898;11.444;2022-09-29T02:45:22;8.10;99.90
61092;DHT22;46975;51.898;11.444;2022-09-29T02:51:23;8.10;99.90
61092;DHT22;46975;51.898;11.444;2022-09-29T03:00:05;8.10;99.90
61092;DHT22;46975;51.898;11.444;2022-09-29T03:02:36;8.10;99.90
61092;DHT22;46975;51.898;11.444;2022-09-29T03:05:04;8.10;99.90
61092;DHT22;46975;51.898;11.444;2022-09-29T03:07:30;8.10;99.90
61092;DHT22;46975;51.898;11.444;2022-09-29T03:09:56;8.10;99.90
61092;DHT22;46975;51.898;11.444;2022-09-29T03:12:22;8.20;99.90
61092;DHT22;46975;51.898;11.444;2022-09-29T03:14:48;8.10;99.90
61092;DHT22;46975;51.898;11.444;2022-09-29T03:17:14;8.10;99.90
61092;DHT22;46975;51.898;11.444;2022-09-29T03:19:40;8.10;99.90
61092;DHT22;46975;51.898;11.444;2022-09-29T03:22:06;8.00;99.90
61092;DHT22;46975;51.898;11.444;2022-09-29T03:24:31;8.00;99.90
61092;DHT22;46975;51.898;11.444;2022-09-29T03:26:57;8.10;99.90
61092;DHT22;46975;51.898;11.444;2022-09-29T03:29:23;8.00;99.90
61092;DHT22;46975;51.898;11.444;2022-09-29T03:31:48;8.00;99.90
61092;DHT22;46975;51.898;11.444;2022-09-29T03:34:14;8.00;99.90
61092;DHT22;46975;51.898;11.444;2022-09-29T03:36:40;7.90;99.90
61092;DHT22;46975;51.898;11.444;2022-09-29T03:39:08;7.80;99.90
61092;DHT22;46975;51.898;11.444;2022-09-29T03:41:34;7.80;99.90
61092;DHT22;46975;51.898;11.444;2022-09-29T03:43:59;7.80;99.90
61092;DHT22;46975;51.898;11.444;2022-09-29T03:46:25;7.70;99.90
61092;DHT22;46975;51.898;11.444;2022-09-29T03:48:51;7.70;99.90
61092;DHT22;46975;51.898;11.444;2022-09-29T03:51:16;7.70;99.90
61092;DHT22;46975;51.898;11.444;2022-09-29T03:53:42;7.70;99.90
61092;DHT22;46975;51.898;11.444;2022-09-29T03:56:08;7.70;99.90
61092;DHT22;46975;51.898;11.444;2022-09-29T03:58:33;7.70;99.90
61092;DHT22;46975;51.898;11.444;2022-09-29T04:01:00;7.80;99.90
61092;DHT22;46975;51.898;11.444;2022-09-29T04:03:27;7.80;99.90
61092;DHT22;46975;51.898;11.444;2022-09-29T04:05:53;7.70;99.90
61092;DHT22;46975;51.898;11.444;2022-09-29T04:08:18;7.70;99.90
61092;DHT22;46975;51.898;11.444;2022-09-29T04:10:47;7.70;99.90
61092;DHT22;46975;51.898;11.444;2022-09-29T04:13:13;7.70;99.90
61092;DHT22;46975;51.898;11.444;2022-09-29T04:15:39;7.60;99.90
61092;DHT22;46975;51.898;11.444;2022-09-29T04:18:05;7.60;99.90
61092;DHT22;46975;51.898;11.444;2022-09-29T04:20:31;7.50;99.90
61092;DHT22;46975;51.898;11.444;2022-09-29T04:22:57;7.30;99.90
61092;DHT22;46975;51.898;11.444;2022-09-29T04:25:23;7.30;99.90
61092;DHT22;46975;51.898;11.444;2022-09-29T04:27:49;7.30;99.90
61092;DHT22;46975;51.898;11.444;2022-09-29T04:30:15;7.30;99.90
61092;DHT22;46975;51.898;11.444;2022-09-29T04:32:41;7.30;99.90
61092;DHT22;46975;51.898;11.444;2022-09-29T04:35:07;7.30;99.90
61092;DHT22;46975;51.898;11.444;2022-09-29T04:37:33;7.30;99.90
61092;DHT22;46975;51.898;11.444;2022-09-29T04:40:00;7.20;99.90
61092;DHT22;46975;51.898;11.444;2022-09-29T04:42:27;7.20;99.90
61092;DHT22;46975;51.898;11.444;2022-09-29T04:44:53;7.20;99.90
61092;DHT22;46975;51.898;11.444;2022-09-29T04:47:19;7.20;99.90
61092;DHT22;46975;51.898;11.444;2022-09-29T04:49:45;7.20;99.90
61092;DHT22;46975;51.898;11.444;2022-09-29T04:52:11;7.20;99.90
61092;DHT22;46975;51.898;11.444;2022-09-29T04:54:37;7.10;99.90
61092;DHT22;46975;51.898;11.444;2022-09-29T04:57:02;7.10;99.90
61092;DHT22;46975;51.898;11.444;2022-09-29T04:59:28;7.00;99.90
61092;DHT22;46975;51.898;11.444;2022-09-29T05:01:54;7.00;99.90
61092;DHT22;46975;51.898;11.444;2022-09-29T05:04:20;6.90;99.90
61092;DHT22;46975;51.898;11.444;2022-09-29T05:06:46;6.80;99.90
61092;DHT22;46975;51.898;11.444;2022-09-29T05:09:12;6.80;99.90
61092;DHT22;46975;51.898;11.444;2022-09-29T05:11:38;6.70;99.90
61092;DHT22;46975;51.898;11.444;2022-09-29T05:14:04;6.80;99.90
61092;DHT22;46975;51.898;11.444;2022-09-29T05:16:30;6.80;99.90
61092;DHT22;46975;51.898;11.444;2022-09-29T05:18:55;6.90;99.90
61092;DHT22;46975;51.898;11.444;2022-09-29T05:21:22;7.00;99.90
61092;DHT22;46975;51.898;11.444;2022-09-29T05:23:47;7.00;99.90
61092;DHT22;46975;51.898;11.444;2022-09-29T05:26:13;6.90;99.90
61092;DHT22;46975;51.898;11.444;2022-09-29T05:28:43;6.90;99.90
61092;DHT22;46975;51.898;11.444;2022-09-29T05:31:09;6.80;99.90
61092;DHT22;46975;51.898;11.444;2022-09-29T05:33:36;6.70;99.90
61092;DHT22;46975;51.898;11.444;2022-09-29T05:36:06;6.60;99.90
61092;DHT22;46975;51.898;11.444;2022-09-29T05:38:33;6.50;99.90
61092;DHT22;46975;51.898;11.444;2022-09-29T05:41:04;6.40;99.90
61092;DHT22;46975;51.898;11.444;2022-09-29T05:43:29;6.40;99.90
61092;DHT22;46975;51.898;11.444;2022-09-29T05:46:06;6.40;99.90
61092;DHT22;46975;51.898;11.444;2022-09-29T05:48:33;6.30;99.90
61092;DHT22;46975;51.898;11.444;2022-09-29T05:50:59;6.40;99.90
61092;DHT22;46975;51.898;11.444;2022-09-29T05:53:30;6.40;99.90
61092;DHT22;46975;51.898;11.444;2022-09-29T05:55:56;6.40;99.90
61092;DHT22;46975;51.898;11.444;2022-09-29T05:58:22;6.60;99.90
61092;DHT22;46975;51.898;11.444;2022-09-29T06:00:48;6.60;99.90
61092;DHT22;46975;51.898;11.444;2022-09-29T06:03:14;6.60;99.90
61092;DHT22;46975;51.898;11.444;2022-09-29T06:05:40;6.70;99.90
61092;DHT22;46975;51.898;11.444;2022-09-29T06:08:06;6.80;99.90
61092;DHT22;46975;51.898;11.444;2022-09-29T06:10:33;6.90;99.90
61092;DHT22;46975;51.898;11.444;2022-09-29T06:12:59;7.10;99.90
61092;DHT22;46975;51.898;11.444;2022-09-29T06:15:25;7.20;99.90
61092;DHT22;46975;51.898;11.444;2022-09-29T06:17:55;7.30;99.90
61092;DHT22;46975;51.898;11.444;2022-09-29T06:20:22;7.50;99.90
61092;DHT22;46975;51.898;11.444;2022-09-29T06:22:48;7.70;99.90
61092;DHT22;46975;51.898;11.444;2022-09-29T06:25:15;8.00;99.90
61092;DHT22;46975;51.898;11.444;2022-09-29T06:27:41;8.50;99.90
61092;DHT22;46975;51.898;11.444;2022-09-29T06:30:07;9.70;99.90
61092;DHT22;46975;51.898;11.444;2022-09-29T06:32:33;12.00;99.90
61092;DHT22;46975;51.898;11.444;2022-09-29T06:35:00;13.70;99.90
61092;DHT22;46975;51.898;11.444;2022-09-29T06:37:44;14.60;99.90
61092;DHT22;46975;51.898;11.444;2022-09-29T06:40:11;15.70;99.90
61092;DHT22;46975;51.898;11.444;2022-09-29T06:42:37;16.50;99.90
61092;DHT22;46975;51.898;11.444;2022-09-29T06:45:03;16.80;99.90
61092;DHT22;46975;51.898;11.444;2022-09-29T06:47:29;16.60;99.90
61092;DHT22;46975;51.898;11.444;2022-09-29T06:49:55;17.20;99.90
61092;DHT22;46975;51.898;11.444;2022-09-29T06:52:22;17.80;99.90
61092;DHT22;46975;51.898;11.444;2022-09-29T06:54:48;18.20;99.90
61092;DHT22;46975;51.898;11.444;2022-09-29T06:57:13;18.20;99.90
61092;DHT22;46975;51.898;11.444;2022-09-29T06:59:39;18.60;99.90
61092;DHT22;46975;51.898;11.444;2022-09-29T07:02:05;18.80;99.90
61092;DHT22;46975;51.898;11.444;2022-09-29T07:04:30;19.30;99.90
61092;DHT22;46975;51.898;11.444;2022-09-29T07:06:56;19.40;99.90
61092;DHT22;46975;51.898;11.444;2022-09-29T07:09:22;20.00;99.10
61092;DHT22;46975;51.898;11.444;2022-09-29T07:11:49;20.10;98.30
61092;DHT22;46975;51.898;11.444;2022-09-29T07:14:17;20.20;97.80
61092;DHT22;46975;51.898;11.444;2022-09-29T07:16:43;20.50;97.60
61092;DHT22;46975;51.898;11.444;2022-09-29T07:19:09;20.20;97.30
61092;DHT22;46975;51.898;11.444;2022-09-29T07:21:35;20.00;96.60
61092;DHT22;46975;51.898;11.444;2022-09-29T07:24:01;20.20;97.20
61092;DHT22;46975;51.898;11.444;2022-09-29T07:26:27;20.20;96.30
61092;DHT22;46975;51.898;11.444;2022-09-29T07:28:53;19.80;96.10
61092;DHT22;46975;51.898;11.444;2022-09-29T07:31:20;19.30;98.00
61092;DHT22;46975;51.898;11.444;2022-09-29T07:33:48;17.60;99.90
61092;DHT22;46975;51.898;11.444;2022-09-29T07:36:15;15.80;99.90
61092;DHT22;46975;51.898;11.444;2022-09-29T07:38:45;14.40;99.90
61092;DHT22;46975;51.898;11.444;2022-09-29T07:41:11;13.30;99.90
61092;DHT22;46975;51.898;11.444;2022-09-29T07:43:37;12.50;99.90
61092;DHT22;46975;51.898;11.444;2022-09-29T07:46:03;12.20;99.90
61092;DHT22;46975;51.898;11.444;2022-09-29T07:48:30;11.90;99.90
61092;DHT22;46975;51.898;11.444;2022-09-29T07:51:02;11.70;99.90
61092;DHT22;46975;51.898;11.444;2022-09-29T07:53:28;11.50;99.90
61092;DHT22;46975;51.898;11.444;2022-09-29T07:55:54;11.50;99.90
61092;DHT22;46975;51.898;11.444;2022-09-29T07:58:20;11.50;99.90
61092;DHT22;46975;51.898;11.444;2022-09-29T08:00:52;11.60;99.90
61092;DHT22;46975;51.898;11.444;2022-09-29T08:03:18;11.60;99.90
61092;DHT22;46975;51.898;11.444;2022-09-29T08:05:43;11.60;99.90
61092;DHT22;46975;51.898;11.444;2022-09-29T08:08:09;11.60;99.90
61092;DHT22;46975;51.898;11.444;2022-09-29T08:10:35;11.60;99.90
61092;DHT22;46975;51.898;11.444;2022-09-29T08:13:00;11.50;99.90
61092;DHT22;46975;51.898;11.444;2022-09-29T08:15:27;11.60;99.90
61092;DHT22;46975;51.898;11.444;2022-09-29T08:17:54;11.60;99.90
61092;DHT22;46975;51.898;11.444;2022-09-29T08:20:21;11.60;99.90
61092;DHT22;46975;51.898;11.444;2022-09-29T08:22:47;11.60;99.90
61092;DHT22;46975;51.898;11.444;2022-09-29T08:25:14;11.60;99.90
61092;DHT22;46975;51.898;11.444;2022-09-29T08:27:40;11.60;99.90
61092;DHT22;46975;51.898;11.444;2022-09-29T08:30:06;11.60;99.90
61092;DHT22;46975;51.898;11.444;2022-09-29T08:32:32;11.60;99.90
61092;DHT22;46975;51.898;11.444;2022-09-29T08:34:58;11.70;99.90
61092;DHT22;46975;51.898;11.444;2022-09-29T08:37:23;11.80;99.90
61092;DHT22;46975;51.898;11.444;2022-09-29T08:39:49;11.80;99.90
61092;DHT22;46975;51.898;11.444;2022-09-29T08:44:57;11.80;99.90
61092;DHT22;46975;51.898;11.444;2022-09-29T08:47:27;11.80;99.90
61092;DHT22;46975;51.898;11.444;2022-09-29T08:50:10;11.80;99.90
61092;DHT22;46975;51.898;11.444;2022-09-29T08:52:40;11.80;99.90
61092;DHT22;46975;51.898;11.444;2022-09-29T08:57:42;12.00;99.90
61092;DHT22;46975;51.898;11.444;2022-09-29T09:00:16;12.00;99.90
61092;DHT22;46975;51.898;11.444;2022-09-29T09:03:04;12.10;99.90
61092;DHT22;46975;51.898;11.444;2022-09-29T09:10:58;12.30;99.90
61092;DHT22;46975;51.898;11.444;2022-09-29T09:16:21;12.40;99.90
61092;DHT22;46975;51.898;11.444;2022-09-29T09:22:21;12.40;99.90
61092;DHT22;46975;51.898;11.444;2022-09-29T09:24:48;12.50;99.90
61092;DHT22;46975;51.898;11.444;2022-09-29T09:27:20;12.60;99.90
61092;DHT22;46975;51.898;11.444;2022-09-29T09:29:49;12.80;99.90
61092;DHT22;46975;51.898;11.444;2022-09-29T09:32:20;12.80;99.90
61092;DHT22;46975;51.898;11.444;2022-09-29T09:37:39;12.80;99.90
61092;DHT22;46975;51.898;11.444;2022-09-29T09:40:13;12.90;99.90
61092;DHT22;46975;51.898;11.444;2022-09-29T09:42:46;12.90;99.90
61092;DHT22;46975;51.898;11.444;2022-09-29T09:48:27;12.80;99.90
61092;DHT22;46975;51.898;11.444;2022-09-29T09:50:54;13.00;99.90
61092;DHT22;46975;51.898;11.444;2022-09-29T09:53:34;13.10;99.90
61092;DHT22;46975;51.898;11.444;2022-09-29T09:56:24;13.20;99.90
61092;DHT22;46975;51.898;11.444;2022-09-29T10:02:03;13.30;99.90
61092;DHT22;46975;51.898;11.444;2022-09-29T10:04:29;13.30;99.90
61092;DHT22;46975;51.898;11.444;2022-09-29T10:06:55;13.40;99.90
61092;DHT22;46975;51.898;11.444;2022-09-29T10:09:21;13.40;99.90
61092;DHT22;46975;51.898;11.444;2022-09-29T10:11:47;13.40;99.90
61092;DHT22;46975;51.898;11.444;2022-09-29T10:14:25;13.30;99.90
61092;DHT22;46975;51.898;11.444;2022-09-29T10:17:00;13.50;99.90
61092;DHT22;46975;51.898;11.444;2022-09-29T10:19:59;13.50;99.90
61092;DHT22;46975;51.898;11.444;2022-09-29T10:22:26;13.60;99.90
61092;DHT22;46975;51.898;11.444;2022-09-29T10:25:07;13.70;99.90
61092;DHT22;46975;51.898;11.444;2022-09-29T10:27:34;13.70;99.90
61092;DHT22;46975;51.898;11.444;2022-09-29T10:30:04;13.80;99.90
61092;DHT22;46975;51.898;11.444;2022-09-29T10:32:43;13.80;99.90
61092;DHT22;46975;51.898;11.444;2022-09-29T10:38:00;14.10;99.90
61092;DHT22;46975;51.898;11.444;2022-09-29T10:40:27;14.20;99.90
61092;DHT22;46975;51.898;11.444;2022-09-29T10:42:55;14.30;99.90
61092;DHT22;46975;51.898;11.444;2022-09-29T10:45:26;14.40;99.90
61092;DHT22;46975;51.898;11.444;2022-09-29T10:50:28;14.50;99.90
61092;DHT22;46975;51.898;11.444;2022-09-29T10:52:59;14.50;99.90
61092;DHT22;46975;51.898;11.444;2022-09-29T10:55:34;14.50;99.90
61092;DHT22;46975;51.898;11.444;2022-09-29T10:58:23;14.30;99.90
61092;DHT22;46975;51.898;11.444;2022-09-29T11:01:03;14.30;99.90
61092;DHT22;46975;51.898;11.444;2022-09-29T11:03:32;14.40;99.90
61092;DHT22;46975;51.898;11.444;2022-09-29T11:06:05;14.50;99.90
61092;DHT22;46975;51.898;11.444;2022-09-29T11:08:32;14.60;99.90
61092;DHT22;46975;51.898;11.444;2022-09-29T11:11:22;14.60;99.90
61092;DHT22;46975;51.898;11.444;2022-09-29T11:13:50;14.60;99.90
61092;DHT22;46975;51.898;11.444;2022-09-29T11:16:34;14.60;99.90
61092;DHT22;46975;51.898;11.444;2022-09-29T11:19:07;14.80;99.90
61092;DHT22;46975;51.898;11.444;2022-09-29T11:24:41;14.80;99.90
61092;DHT22;46975;51.898;11.444;2022-09-29T11:27:30;14.60;99.90
61092;DHT22;46975;51.898;11.444;2022-09-29T11:30:02;14.70;99.90
61092;DHT22;46975;51.898;11.444;2022-09-29T11:32:55;14.90;99.90
61092;DHT22;46975;51.898;11.444;2022-09-29T11:38:37;15.30;99.90
61092;DHT22;46975;51.898;11.444;2022-09-29T11:43:49;15.40;99.90
61092;DHT22;46975;51.898;11.444;2022-09-29T11:46:54;15.40;99.90
61092;DHT22;46975;51.898;11.444;2022-09-29T11:50:22;15.60;99.90
61092;DHT22;46975;51.898;11.444;2022-09-29T11:58:41;15.70;99.90
61092;DHT22;46975;51.898;11.444;2022-09-29T12:06:55;15.60;99.90
61092;DHT22;46975;51.898;11.444;2022-09-29T12:17:42;15.00;99.90
61092;DHT22;46975;51.898;11.444;2022-09-29T12:20:23;15.00;99.90
61092;DHT22;46975;51.898;11.444;2022-09-29T12:22:52;15.00;99.90
61092;DHT22;46975;51.898;11.444;2022-09-29T12:25:22;15.10;99.90
61092;DHT22;46975;51.898;11.444;2022-09-29T12:27:52;15.20;99.90
61092;DHT22;46975;51.898;11.444;2022-09-29T12:30:27;15.30;99.90
61092;DHT22;46975;51.898;11.444;2022-09-29T12:33:06;15.40;99.90
61092;DHT22;46975;51.898;11.444;2022-09-29T12:38:26;15.50;99.90
61092;DHT22;46975;51.898;11.444;2022-09-29T12:41:24;15.50;99.90
61092;DHT22;46975;51.898;11.444;2022-09-29T12:52:16;15.30;99.90
61092;DHT22;46975;51.898;11.444;2022-09-29T12:54:47;15.40;99.90
61092;DHT22;46975;51.898;11.444;2022-09-29T12:57:17;15.40;99.90
61092;DHT22;46975;51.898;11.444;2022-09-29T13:16:38;16.30;99.90
61092;DHT22;46975;51.898;11.444;2022-09-29T13:24:50;16.60;99.90
61092;DHT22;46975;51.898;11.444;2022-09-29T13:27:22;16.80;99.90
61092;DHT22;46975;51.898;11.444;2022-09-29T13:30:15;16.90;99.90
61092;DHT22;46975;51.898;11.444;2022-09-29T13:33:06;16.80;99.90
61092;DHT22;46975;51.898;11.444;2022-09-29T13:35:39;16.80;99.90
61092;DHT22;46975;51.898;11.444;2022-09-29T13:38:12;16.50;99.90
61092;DHT22;46975;51.898;11.444;2022-09-29T13:41:15;16.70;99.90
61092;DHT22;46975;51.898;11.444;2022-09-29T13:49:14;16.70;99.90
61092;DHT22;46975;51.898;11.444;2022-09-29T13:54:35;16.20;99.90
61092;DHT22;46975;51.898;11.444;2022-09-29T13:57:17;16.10;99.90
61092;DHT22;46975;51.898;11.444;2022-09-29T14:03:00;15.60;99.90
61092;DHT22;46975;51.898;11.444;2022-09-29T14:18:32;15.10;99.90
61092;DHT22;46975;51.898;11.444;2022-09-29T14:21:03;15.00;99.90
61092;DHT22;46975;51.898;11.444;2022-09-29T14:29:24;15.10;99.90
61092;DHT22;46975;51.898;11.444;2022-09-29T14:31:54;15.10;99.90
61092;DHT22;46975;51.898;11.444;2022-09-29T14:34:23;15.10;99.90
61092;DHT22;46975;51.898;11.444;2022-09-29T14:36:52;15.10;99.90
61092;DHT22;46975;51.898;11.444;2022-09-29T14:39:19;15.00;99.90
61092;DHT22;46975;51.898;11.444;2022-09-29T14:41:47;14.90;99.90
61092;DHT22;46975;51.898;11.444;2022-09-29T14:44:30;14.80;99.90
61092;DHT22;46975;51.898;11.444;2022-09-29T14:50:29;14.80;99.90
61092;DHT22;46975;51.898;11.444;2022-09-29T14:53:22;14.90;99.90
61092;DHT22;46975;51.898;11.444;2022-09-29T15:03:39;15.00;99.90
61092;DHT22;46975;51.898;11.444;2022-09-29T15:06:18;15.00;99.90
61092;DHT22;46975;51.898;11.444;2022-09-29T15:09:00;14.90;99.90
61092;DHT22;46975;51.898;11.444;2022-09-29T15:13:57;14.70;99.90
61092;DHT22;46975;51.898;11.444;2022-09-29T15:19:42;14.70;99.90
61092;DHT22;46975;51.898;11.444;2022-09-29T15:27:33;14.40;99.90
61092;DHT22;46975;51.898;11.444;2022-09-29T15:29:59;14.30;99.90
61092;DHT22;46975;51.898;11.444;2022-09-29T15:32:30;14.20;99.90
61092;DHT22;46975;51.898;11.444;2022-09-29T15:35:04;14.20;99.90
61092;DHT22;46975;51.898;11.444;2022-09-29T15:37:53;14.20;99.90
61092;DHT22;46975;51.898;11.444;2022-09-29T15:40:20;14.20;99.90
61092;DHT22;46975;51.898;11.444;2022-09-29T15:42:47;14.20;99.90
61092;DHT22;46975;51.898;11.444;2022-09-29T15:45:24;14.20;99.90
61092;DHT22;46975;51.898;11.444;2022-09-29T15:48:25;14.20;99.90
61092;DHT22;46975;51.898;11.444;2022-09-29T15:50:43;14.20;99.90
61092;DHT22;46975;51.898;11.444;2022-09-29T15:53:10;14.20;99.90
61092;DHT22;46975;51.898;11.444;2022-09-29T15:55:36;14.10;99.90
61092;DHT22;46975;51.898;11.444;2022-09-29T16:01:03;14.00;99.90
61092;DHT22;46975;51.898;11.444;2022-09-29T16:03:48;14.00;99.90
61092;DHT22;46975;51.898;11.444;2022-09-29T16:08:59;13.90;99.90
61092;DHT22;46975;51.898;11.444;2022-09-29T16:11:32;13.90;99.90
61092;DHT22;46975;51.898;11.444;2022-09-29T16:14:02;13.80;99.90
61092;DHT22;46975;51.898;11.444;2022-09-29T16:16:35;13.80;99.90
61092;DHT22;46975;51.898;11.444;2022-09-29T16:19:12;13.70;99.90
61092;DHT22;46975;51.898;11.444;2022-09-29T16:21:38;13.70;99.90
61092;DHT22;46975;51.898;11.444;2022-09-29T16:24:12;13.60;99.90
61092;DHT22;46975;51.898;11.444;2022-09-29T16:26:44;13.60;99.90
61092;DHT22;46975;51.898;11.444;2022-09-29T16:31:39;13.50;99.90
61092;DHT22;46975;51.898;11.444;2022-09-29T16:39:15;13.30;99.90
61092;DHT22;46975;51.898;11.444;2022-09-29T16:41:42;13.30;99.90
61092;DHT22;46975;51.898;11.444;2022-09-29T16:44:17;13.30;99.90
61092;DHT22;46975;51.898;11.444;2022-09-29T16:47:12;13.30;99.90
61092;DHT22;46975;51.898;11.444;2022-09-29T16:49:54;13.20;99.90
61092;DHT22;46975;51.898;11.444;2022-09-29T16:54:51;13.20;99.90
61092;DHT22;46975;51.898;11.444;2022-09-29T17:00:01;13.10;99.90
61092;DHT22;46975;51.898;11.444;2022-09-29T17:02:31;13.10;99.90
61092;DHT22;46975;51.898;11.444;2022-09-29T17:04:56;13.10;99.90
61092;DHT22;46975;51.898;11.444;2022-09-29T17:07:24;13.10;99.90
61092;DHT22;46975;51.898;11.444;2022-09-29T17:09:53;13.10;99.90
61092;DHT22;46975;51.898;11.444;2022-09-29T17:12:20;13.00;99.90
61092;DHT22;46975;51.898;11.444;2022-09-29T17:14:47;13.00;99.90
61092;DHT22;46975;51.898;11.444;2022-09-29T17:17:20;12.90;99.90
61092;DHT22;46975;51.898;11.444;2022-09-29T17:19:47;12.90;99.90
61092;DHT22;46975;51.898;11.444;2022-09-29T17:22:23;12.90;99.90
61092;DHT22;46975;51.898;11.444;2022-09-29T17:24:50;12.90;99.90
61092;DHT22;46975;51.898;11.444;2022-09-29T17:27:16;12.80;99.90
61092;DHT22;46975;51.898;11.444;2022-09-29T17:30:00;12.80;99.90
61092;DHT22;46975;51.898;11.444;2022-09-29T17:32:25;12.80;99.90
61092;DHT22;46975;51.898;11.444;2022-09-29T17:34:51;12.70;99.90
61092;DHT22;46975;51.898;11.444;2022-09-29T17:37:17;12.80;99.90
61092;DHT22;46975;51.898;11.444;2022-09-29T17:39:44;12.70;99.90
61092;DHT22;46975;51.898;11.444;2022-09-29T17:42:10;12.70;99.90
61092;DHT22;46975;51.898;11.444;2022-09-29T17:44:36;12.70;99.90
61092;DHT22;46975;51.898;11.444;2022-09-29T17:47:15;12.60;99.90
61092;DHT22;46975;51.898;11.444;2022-09-29T17:49:44;12.60;99.90
61092;DHT22;46975;51.898;11.444;2022-09-29T17:52:14;12.60;99.90
61092;DHT22;46975;51.898;11.444;2022-09-29T17:54:41;12.50;99.90
61092;DHT22;46975;51.898;11.444;2022-09-29T17:57:19;12.40;99.90
61092;DHT22;46975;51.898;11.444;2022-09-29T17:59:45;12.40;99.90
61092;DHT22;46975;51.898;11.444;2022-09-29T18:02:11;12.30;99.90
61092;DHT22;46975;51.898;11.444;2022-09-29T18:04:40;12.30;99.90
61092;DHT22;46975;51.898;11.444;2022-09-29T18:07:10;12.30;99.90
61092;DHT22;46975;51.898;11.444;2022-09-29T18:09:38;12.30;99.90
61092;DHT22;46975;51.898;11.444;2022-09-29T18:12:04;12.30;99.90
61092;DHT22;46975;51.898;11.444;2022-09-29T18:14:30;12.20;99.90
61092;DHT22;46975;51.898;11.444;2022-09-29T18:17:00;12.10;99.90
61092;DHT22;46975;51.898;11.444;2022-09-29T18:19:29;12.10;99.90
61092;DHT22;46975;51.898;11.444;2022-09-29T18:21:54;12.00;99.90
61092;DHT22;46975;51.898;11.444;2022-09-29T18:24:22;12.00;99.90
61092;DHT22;46975;51.898;11.444;2022-09-29T18:26:48;12.00;99.90
61092;DHT22;46975;51.898;11.444;2022-09-29T18:29:15;11.90;99.90
61092;DHT22;46975;51.898;11.444;2022-09-29T18:31:41;11.90;99.90
61092;DHT22;46975;51.898;11.444;2022-09-29T18:34:14;11.90;99.90
61092;DHT22;46975;51.898;11.444;2022-09-29T18:36:40;11.90;99.90
61092;DHT22;46975;51.898;11.444;2022-09-29T18:39:05;11.80;99.90
61092;DHT22;46975;51.898;11.444;2022-09-29T18:41:31;11.80;99.90
61092;DHT22;46975;51.898;11.444;2022-09-29T18:43:57;11.80;99.90
61092;DHT22;46975;51.898;11.444;2022-09-29T18:46:23;11.70;99.90
61092;DHT22;46975;51.898;11.444;2022-09-29T18:48:49;11.70;99.90
61092;DHT22;46975;51.898;11.444;2022-09-29T18:51:15;11.60;99.90
61092;DHT22;46975;51.898;11.444;2022-09-29T18:53:41;11.60;99.90
61092;DHT22;46975;51.898;11.444;2022-09-29T18:56:15;11.60;99.90
61092;DHT22;46975;51.898;11.444;2022-09-29T18:58:43;11.50;99.90
61092;DHT22;46975;51.898;11.444;2022-09-29T19:01:13;11.60;99.90
61092;DHT22;46975;51.898;11.444;2022-09-29T19:03:39;11.60;99.90
61092;DHT22;46975;51.898;11.444;2022-09-29T19:06:07;11.70;99.90
61092;DHT22;46975;51.898;11.444;2022-09-29T19:08:33;11.60;99.90
61092;DHT22;46975;51.898;11.444;2022-09-29T19:10:59;11.60;99.90
61092;DHT22;46975;51.898;11.444;2022-09-29T19:13:25;11.50;99.90